sensor_id;sensor_type;location;lat;lon;timestamp;P1;durP1;ratioP1;P2;durP2;ratioP2
7807;SDS011;3949;49.254;8.894;2022-08-06T00:01:06;1.53;;;1.43;;
7807;SDS011;3949;49.254;8.894;2022-08-06T00:03:32;1.70;;;1.50;;
7807;SDS011;3949;49.254;8.894;2022-08-06T00:05:58;4.00;;;2.03;;
7807;SDS011;3949;49.254;8.894;2022-08-06T00:08:24;2.67;;;1.47;;
7807;SDS011;3949;49.254;8.894;2022-08-06T00:10:50;2.57;;;1.63;;
7807;SDS011;3949;49.254;8.894;2022-08-06T00:13:16;3.20;;;2.10;;
7807;SDS011;3949;49.254;8.894;2022-08-06T00:15:43;2.43;;;1.97;;
7807;SDS011;3949;49.254;8.894;2022-08-06T00:18:09;1.80;;;1.50;;
7807;SDS011;3949;49.254;8.894;2022-08-06T00:20:35;3.27;;;1.53;;
7807;SDS011;3949;49.254;8.894;2022-08-06T00:23:01;2.93;;;1.70;;
7807;SDS011;3949;49.254;8.894;2022-08-06T00:25:28;1.87;;;1.30;;
7807;SDS011;3949;49.254;8.894;2022-08-06T00:27:54;2.00;;;1.50;;
7807;SDS011;3949;49.254;8.894;2022-08-06T00:30:20;1.03;;;1.00;;
7807;SDS011;3949;49.254;8.894;2022-08-06T00:32:46;2.70;;;1.73;;
7807;SDS011;3949;49.254;8.894;2022-08-06T00:35:13;1.80;;;1.43;;
7807;SDS011;3949;49.254;8.894;2022-08-06T00:37:39;2.10;;;1.90;;
7807;SDS011;3949;49.254;8.894;2022-08-06T00:40:05;3.60;;;1.83;;
7807;SDS011;3949;49.254;8.894;2022-08-06T00:42:31;2.53;;;1.60;;
7807;SDS011;3949;49.254;8.894;2022-08-06T00:44:57;2.30;;;1.70;;
7807;SDS011;3949;49.254;8.894;2022-08-06T00:47:24;2.83;;;1.87;;
7807;SDS011;3949;49.254;8.894;2022-08-06T00:49:50;1.50;;;1.40;;
7807;SDS011;3949;49.254;8.894;2022-08-06T00:52:16;3.53;;;1.50;;
7807;SDS011;3949;49.254;8.894;2022-08-06T00:54:42;1.70;;;1.60;;
7807;SDS011;3949;49.254;8.894;2022-08-06T00:57:08;1.97;;;1.70;;
7807;SDS011;3949;49.254;8.894;2022-08-06T00:59:34;1.90;;;1.57;;
7807;SDS011;3949;49.254;8.894;2022-08-06T01:02:00;2.13;;;1.40;;
7807;SDS011;3949;49.254;8.894;2022-08-06T01:04:26;3.57;;;1.80;;
7807;SDS011;3949;49.254;8.894;2022-08-06T01:06:52;1.50;;;1.40;;
7807;SDS011;3949;49.254;8.894;2022-08-06T01:09:18;1.63;;;1.53;;
7807;SDS011;3949;49.254;8.894;2022-08-06T01:11:44;1.50;;;1.40;;
7807;SDS011;3949;49.254;8.894;2022-08-06T01:14:10;2.00;;;1.50;;
7807;SDS011;3949;49.254;8.894;2022-08-06T01:16:43;3.07;;;1.87;;
7807;SDS011;3949;49.254;8.894;2022-08-06T01:24:12;1.80;;;1.70;;
7807;SDS011;3949;49.254;8.894;2022-08-06T01:26:43;2.00;;;1.70;;
7807;SDS011;3949;49.254;8.894;2022-08-06T01:29:46;1.47;;;1.37;;
7807;SDS011;3949;49.254;8.894;2022-08-06T01:32:27;1.73;;;1.60;;
7807;SDS011;3949;49.254;8.894;2022-08-06T01:34:56;1.63;;;1.53;;
7807;SDS011;3949;49.254;8.894;2022-08-06T01:37:29;2.07;;;1.60;;
7807;SDS011;3949;49.254;8.894;2022-08-06T01:39:57;2.50;;;1.63;;
7807;SDS011;3949;49.254;8.894;2022-08-06T01:42:25;2.03;;;1.40;;
7807;SDS011;3949;49.254;8.894;2022-08-06T01:44:51;1.90;;;1.70;;
7807;SDS011;3949;49.254;8.894;2022-08-06T01:47:19;2.87;;;1.50;;
7807;SDS011;3949;49.254;8.894;2022-08-06T01:49:50;1.80;;;1.60;;
7807;SDS011;3949;49.254;8.894;2022-08-06T01:52:17;2.57;;;1.40;;
7807;SDS011;3949;49.254;8.894;2022-08-06T01:54:45;3.43;;;1.80;;
7807;SDS011;3949;49.254;8.894;2022-08-06T01:57:11;2.13;;;1.60;;
7807;SDS011;3949;49.254;8.894;2022-08-06T01:59:42;2.30;;;1.70;;
7807;SDS011;3949;49.254;8.894;2022-08-06T02:02:10;1.70;;;1.43;;
7807;SDS011;3949;49.254;8.894;2022-08-06T02:04:39;1.73;;;1.63;;
7807;SDS011;3949;49.254;8.894;2022-08-06T02:07:07;2.13;;;1.80;;
7807;SDS011;3949;49.254;8.894;2022-08-06T02:09:33;2.10;;;1.90;;
7807;SDS011;3949;49.254;8.894;2022-08-06T02:12:04;2.53;;;2.30;;
7807;SDS011;3949;49.254;8.894;2022-08-06T02:14:33;2.63;;;2.20;;
7807;SDS011;3949;49.254;8.894;2022-08-06T02:17:01;2.47;;;1.90;;
7807;SDS011;3949;49.254;8.894;2022-08-06T02:19:28;3.30;;;1.70;;
7807;SDS011;3949;49.254;8.894;2022-08-06T02:21:54;1.83;;;1.63;;
7807;SDS011;3949;49.254;8.894;2022-08-06T02:24:21;2.17;;;1.87;;
7807;SDS011;3949;49.254;8.894;2022-08-06T02:26:48;3.17;;;1.70;;
7807;SDS011;3949;49.254;8.894;2022-08-06T02:29:16;2.20;;;2.00;;
7807;SDS011;3949;49.254;8.894;2022-08-06T02:31:43;1.80;;;1.70;;
7807;SDS011;3949;49.254;8.894;2022-08-06T02:34:09;4.27;;;2.00;;
7807;SDS011;3949;49.254;8.894;2022-08-06T02:36:37;2.23;;;2.03;;
7807;SDS011;3949;49.254;8.894;2022-08-06T02:39:11;2.33;;;1.80;;
7807;SDS011;3949;49.254;8.894;2022-08-06T02:41:42;2.30;;;1.63;;
7807;SDS011;3949;49.254;8.894;2022-08-06T02:44:16;2.37;;;2.00;;
7807;SDS011;3949;49.254;8.894;2022-08-06T02:46:44;2.00;;;1.90;;
7807;SDS011;3949;49.254;8.894;2022-08-06T02:49:16;3.73;;;2.20;;
7807;SDS011;3949;49.254;8.894;2022-08-06T02:51:45;3.23;;;2.10;;
7807;SDS011;3949;49.254;8.894;2022-08-06T02:54:14;2.27;;;2.07;;
7807;SDS011;3949;49.254;8.894;2022-08-06T02:56:42;3.87;;;1.93;;
7807;SDS011;3949;49.254;8.894;2022-08-06T02:59:08;1.73;;;1.60;;
7807;SDS011;3949;49.254;8.894;2022-08-06T03:01:37;2.60;;;1.90;;
7807;SDS011;3949;49.254;8.894;2022-08-06T03:04:04;2.00;;;1.90;;
7807;SDS011;3949;49.254;8.894;2022-08-06T03:06:32;4.70;;;2.20;;
7807;SDS011;3949;49.254;8.894;2022-08-06T03:08:59;2.03;;;1.93;;
7807;SDS011;3949;49.254;8.894;2022-08-06T03:11:26;2.20;;;2.00;;
7807;SDS011;3949;49.254;8.894;2022-08-06T03:13:54;2.10;;;1.90;;
7807;SDS011;3949;49.254;8.894;2022-08-06T03:16:22;2.30;;;2.10;;
7807;SDS011;3949;49.254;8.894;2022-08-06T03:18:48;3.83;;;2.20;;
7807;SDS011;3949;49.254;8.894;2022-08-06T03:21:14;2.20;;;2.03;;
7807;SDS011;3949;49.254;8.894;2022-08-06T03:23:41;2.60;;;2.07;;
7807;SDS011;3949;49.254;8.894;2022-08-06T03:26:08;5.13;;;2.33;;
7807;SDS011;3949;49.254;8.894;2022-08-06T03:28:34;2.97;;;2.00;;
7807;SDS011;3949;49.254;8.894;2022-08-06T03:31:01;2.17;;;2.07;;
7807;SDS011;3949;49.254;8.894;2022-08-06T03:33:27;2.20;;;2.00;;
7807;SDS011;3949;49.254;8.894;2022-08-06T03:35:54;2.50;;;2.30;;
7807;SDS011;3949;49.254;8.894;2022-08-06T03:38:22;1.97;;;1.80;;
7807;SDS011;3949;49.254;8.894;2022-08-06T03:40:48;2.77;;;1.97;;
7807;SDS011;3949;49.254;8.894;2022-08-06T03:43:14;3.37;;;2.20;;
7807;SDS011;3949;49.254;8.894;2022-08-06T03:45:44;2.03;;;1.93;;
7807;SDS011;3949;49.254;8.894;2022-08-06T03:48:12;2.40;;;2.20;;
7807;SDS011;3949;49.254;8.894;2022-08-06T03:50:41;2.20;;;1.97;;
7807;SDS011;3949;49.254;8.894;2022-08-06T03:53:13;2.67;;;2.47;;
7807;SDS011;3949;49.254;8.894;2022-08-06T03:55:41;2.20;;;2.10;;
7807;SDS011;3949;49.254;8.894;2022-08-06T03:58:11;4.10;;;2.40;;
7807;SDS011;3949;49.254;8.894;2022-08-06T04:00:40;3.60;;;2.40;;
7807;SDS011;3949;49.254;8.894;2022-08-06T04:03:07;2.57;;;2.37;;
7807;SDS011;3949;49.254;8.894;2022-08-06T04:05:33;2.90;;;2.20;;
7807;SDS011;3949;49.254;8.894;2022-08-06T04:08:05;2.40;;;2.20;;
7807;SDS011;3949;49.254;8.894;2022-08-06T04:10:41;2.40;;;2.10;;
7807;SDS011;3949;49.254;8.894;2022-08-06T04:13:08;2.13;;;1.70;;
7807;SDS011;3949;49.254;8.894;2022-08-06T04:15:35;2.87;;;2.47;;
7807;SDS011;3949;49.254;8.894;2022-08-06T04:18:02;2.50;;;1.90;;
7807;SDS011;3949;49.254;8.894;2022-08-06T04:20:29;2.23;;;2.10;;
7807;SDS011;3949;49.254;8.894;2022-08-06T04:22:56;2.00;;;1.90;;
7807;SDS011;3949;49.254;8.894;2022-08-06T04:25:22;2.97;;;2.17;;
7807;SDS011;3949;49.254;8.894;2022-08-06T04:27:49;2.00;;;1.90;;
7807;SDS011;3949;49.254;8.894;2022-08-06T04:30:15;1.90;;;1.80;;
7807;SDS011;3949;49.254;8.894;2022-08-06T04:32:41;2.53;;;2.17;;
7807;SDS011;3949;49.254;8.894;2022-08-06T04:35:08;2.97;;;2.00;;
7807;SDS011;3949;49.254;8.894;2022-08-06T04:37:35;2.53;;;2.20;;
7807;SDS011;3949;49.254;8.894;2022-08-06T04:40:01;2.70;;;2.13;;
7807;SDS011;3949;49.254;8.894;2022-08-06T04:42:28;2.43;;;2.23;;
7807;SDS011;3949;49.254;8.894;2022-08-06T04:44:54;2.60;;;2.40;;
7807;SDS011;3949;49.254;8.894;2022-08-06T04:47:20;2.47;;;2.27;;
7807;SDS011;3949;49.254;8.894;2022-08-06T04:49:47;2.60;;;2.37;;
7807;SDS011;3949;49.254;8.894;2022-08-06T04:52:20;2.33;;;2.17;;
7807;SDS011;3949;49.254;8.894;2022-08-06T04:54:46;4.27;;;2.50;;
7807;SDS011;3949;49.254;8.894;2022-08-06T04:57:12;4.13;;;2.77;;
7807;SDS011;3949;49.254;8.894;2022-08-06T04:59:38;3.07;;;2.33;;
7807;SDS011;3949;49.254;8.894;2022-08-06T05:02:04;2.47;;;2.27;;
7807;SDS011;3949;49.254;8.894;2022-08-06T05:04:30;2.63;;;2.37;;
7807;SDS011;3949;49.254;8.894;2022-08-06T05:07:00;2.40;;;2.20;;
7807;SDS011;3949;49.254;8.894;2022-08-06T05:09:27;4.40;;;2.17;;
7807;SDS011;3949;49.254;8.894;2022-08-06T05:12:02;2.27;;;2.10;;
7807;SDS011;3949;49.254;8.894;2022-08-06T05:14:32;2.50;;;2.30;;
7807;SDS011;3949;49.254;8.894;2022-08-06T05:17:00;2.50;;;2.30;;
7807;SDS011;3949;49.254;8.894;2022-08-06T05:19:28;2.10;;;2.00;;
7807;SDS011;3949;49.254;8.894;2022-08-06T05:21:56;6.03;;;2.40;;
7807;SDS011;3949;49.254;8.894;2022-08-06T05:24:23;7.37;;;2.63;;
7807;SDS011;3949;49.254;8.894;2022-08-06T05:26:50;2.37;;;2.20;;
7807;SDS011;3949;49.254;8.894;2022-08-06T05:29:19;2.40;;;2.10;;
7807;SDS011;3949;49.254;8.894;2022-08-06T05:31:46;2.50;;;2.10;;
7807;SDS011;3949;49.254;8.894;2022-08-06T05:34:12;3.27;;;2.17;;
7807;SDS011;3949;49.254;8.894;2022-08-06T05:36:38;3.83;;;2.40;;
7807;SDS011;3949;49.254;8.894;2022-08-06T05:39:05;2.47;;;2.27;;
7807;SDS011;3949;49.254;8.894;2022-08-06T05:41:31;2.90;;;2.63;;
7807;SDS011;3949;49.254;8.894;2022-08-06T05:44:00;3.77;;;2.57;;
7807;SDS011;3949;49.254;8.894;2022-08-06T05:46:27;3.27;;;2.30;;
7807;SDS011;3949;49.254;8.894;2022-08-06T05:49:17;2.80;;;2.50;;
7807;SDS011;3949;49.254;8.894;2022-08-06T05:51:45;3.40;;;3.10;;
7807;SDS011;3949;49.254;8.894;2022-08-06T05:54:17;2.97;;;2.67;;
7807;SDS011;3949;49.254;8.894;2022-08-06T05:56:44;4.23;;;2.77;;
7807;SDS011;3949;49.254;8.894;2022-08-06T05:59:19;2.80;;;2.60;;
7807;SDS011;3949;49.254;8.894;2022-08-06T06:01:46;2.40;;;2.20;;
7807;SDS011;3949;49.254;8.894;2022-08-06T06:04:13;3.93;;;2.27;;
7807;SDS011;3949;49.254;8.894;2022-08-06T06:06:40;2.43;;;2.23;;
7807;SDS011;3949;49.254;8.894;2022-08-06T06:09:06;3.20;;;2.30;;
7807;SDS011;3949;49.254;8.894;2022-08-06T06:11:32;3.60;;;2.20;;
7807;SDS011;3949;49.254;8.894;2022-08-06T06:13:59;2.83;;;2.20;;
7807;SDS011;3949;49.254;8.894;2022-08-06T06:16:27;2.53;;;2.00;;
7807;SDS011;3949;49.254;8.894;2022-08-06T06:19:02;2.43;;;2.23;;
7807;SDS011;3949;49.254;8.894;2022-08-06T06:21:37;2.30;;;2.10;;
7807;SDS011;3949;49.254;8.894;2022-08-06T06:27:07;2.00;;;1.90;;
7807;SDS011;3949;49.254;8.894;2022-08-06T06:34:51;2.50;;;2.30;;
7807;SDS011;3949;49.254;8.894;2022-08-06T06:42:40;2.33;;;2.13;;
7807;SDS011;3949;49.254;8.894;2022-08-06T06:45:14;3.60;;;2.83;;
7807;SDS011;3949;49.254;8.894;2022-08-06T06:50:16;3.93;;;1.80;;
7807;SDS011;3949;49.254;8.894;2022-08-06T06:52:44;3.50;;;2.10;;
7807;SDS011;3949;49.254;8.894;2022-08-06T06:57:51;2.43;;;1.80;;
7807;SDS011;3949;49.254;8.894;2022-08-06T07:00:18;2.07;;;1.80;;
7807;SDS011;3949;49.254;8.894;2022-08-06T07:02:45;2.57;;;2.30;;
7807;SDS011;3949;49.254;8.894;2022-08-06T07:05:13;3.93;;;1.47;;
7807;SDS011;3949;49.254;8.894;2022-08-06T07:07:40;2.80;;;1.80;;
7807;SDS011;3949;49.254;8.894;2022-08-06T07:10:07;2.33;;;1.90;;
7807;SDS011;3949;49.254;8.894;2022-08-06T07:12:34;3.50;;;2.17;;
7807;SDS011;3949;49.254;8.894;2022-08-06T07:15:02;1.80;;;1.40;;
7807;SDS011;3949;49.254;8.894;2022-08-06T07:17:29;2.73;;;1.80;;
7807;SDS011;3949;49.254;8.894;2022-08-06T07:19:56;2.33;;;1.70;;
7807;SDS011;3949;49.254;8.894;2022-08-06T07:22:24;6.13;;;5.40;;
7807;SDS011;3949;49.254;8.894;2022-08-06T07:24:51;1.77;;;1.20;;
7807;SDS011;3949;49.254;8.894;2022-08-06T07:27:17;1.73;;;1.20;;
7807;SDS011;3949;49.254;8.894;2022-08-06T07:29:44;2.93;;;1.63;;
7807;SDS011;3949;49.254;8.894;2022-08-06T07:32:10;1.70;;;1.40;;
7807;SDS011;3949;49.254;8.894;2022-08-06T07:34:37;2.20;;;1.57;;
7807;SDS011;3949;49.254;8.894;2022-08-06T07:37:04;1.67;;;1.40;;
7807;SDS011;3949;49.254;8.894;2022-08-06T07:39:32;1.60;;;1.13;;
7807;SDS011;3949;49.254;8.894;2022-08-06T07:42:00;1.83;;;1.43;;
7807;SDS011;3949;49.254;8.894;2022-08-06T07:44:27;6.33;;;4.90;;
7807;SDS011;3949;49.254;8.894;2022-08-06T07:46:56;1.40;;;1.20;;
7807;SDS011;3949;49.254;8.894;2022-08-06T07:49:25;1.67;;;1.13;;
7807;SDS011;3949;49.254;8.894;2022-08-06T07:51:52;2.03;;;1.10;;
7807;SDS011;3949;49.254;8.894;2022-08-06T07:54:20;5.23;;;3.07;;
7807;SDS011;3949;49.254;8.894;2022-08-06T07:56:48;1.80;;;1.33;;
7807;SDS011;3949;49.254;8.894;2022-08-06T07:59:14;1.10;;;1.07;;
7807;SDS011;3949;49.254;8.894;2022-08-06T08:01:40;0.93;;;0.90;;
7807;SDS011;3949;49.254;8.894;2022-08-06T08:04:07;1.50;;;1.40;;
7807;SDS011;3949;49.254;8.894;2022-08-06T08:06:52;2.23;;;1.20;;
7807;SDS011;3949;49.254;8.894;2022-08-06T08:09:19;1.50;;;1.40;;
7807;SDS011;3949;49.254;8.894;2022-08-06T08:11:46;2.37;;;1.07;;
7807;SDS011;3949;49.254;8.894;2022-08-06T08:14:16;1.43;;;1.10;;
7807;SDS011;3949;49.254;8.894;2022-08-06T08:16:44;1.73;;;1.30;;
7807;SDS011;3949;49.254;8.894;2022-08-06T08:19:26;3.43;;;1.10;;
7807;SDS011;3949;49.254;8.894;2022-08-06T08:21:56;1.17;;;0.83;;
7807;SDS011;3949;49.254;8.894;2022-08-06T08:24:25;0.80;;;0.80;;
7807;SDS011;3949;49.254;8.894;2022-08-06T08:26:52;0.80;;;0.80;;
7807;SDS011;3949;49.254;8.894;2022-08-06T08:29:18;1.47;;;0.93;;
7807;SDS011;3949;49.254;8.894;2022-08-06T08:31:44;4.00;;;1.50;;
7807;SDS011;3949;49.254;8.894;2022-08-06T08:34:10;1.10;;;0.80;;
7807;SDS011;3949;49.254;8.894;2022-08-06T08:36:37;2.20;;;0.87;;
7807;SDS011;3949;49.254;8.894;2022-08-06T08:39:03;1.80;;;0.90;;
7807;SDS011;3949;49.254;8.894;2022-08-06T08:41:33;1.80;;;1.70;;
7807;SDS011;3949;49.254;8.894;2022-08-06T08:44:02;1.80;;;0.90;;
7807;SDS011;3949;49.254;8.894;2022-08-06T08:46:28;1.33;;;0.93;;
7807;SDS011;3949;49.254;8.894;2022-08-06T08:48:55;2.67;;;1.00;;
7807;SDS011;3949;49.254;8.894;2022-08-06T08:51:22;3.17;;;1.17;;
7807;SDS011;3949;49.254;8.894;2022-08-06T08:53:53;0.70;;;0.70;;
7807;SDS011;3949;49.254;8.894;2022-08-06T08:56:20;1.17;;;0.98;;
7807;SDS011;3949;49.254;8.894;2022-08-06T08:58:47;1.08;;;0.85;;
7807;SDS011;3949;49.254;8.894;2022-08-06T09:01:14;0.73;;;0.73;;
7807;SDS011;3949;49.254;8.894;2022-08-06T09:03:41;1.85;;;0.98;;
7807;SDS011;3949;49.254;8.894;2022-08-06T09:06:08;1.45;;;1.10;;
7807;SDS011;3949;49.254;8.894;2022-08-06T09:08:34;2.88;;;1.33;;
7807;SDS011;3949;49.254;8.894;2022-08-06T09:11:04;1.58;;;0.93;;
7807;SDS011;3949;49.254;8.894;2022-08-06T09:13:30;1.60;;;0.90;;
7807;SDS011;3949;49.254;8.894;2022-08-06T09:15:56;3.38;;;1.35;;
7807;SDS011;3949;49.254;8.894;2022-08-06T09:18:23;1.38;;;1.15;;
7807;SDS011;3949;49.254;8.894;2022-08-06T09:20:50;2.05;;;1.02;;
7807;SDS011;3949;49.254;8.894;2022-08-06T09:23:16;1.05;;;0.95;;
7807;SDS011;3949;49.254;8.894;2022-08-06T09:25:46;0.80;;;0.80;;
7807;SDS011;3949;49.254;8.894;2022-08-06T09:33:38;0.98;;;0.75;;
7807;SDS011;3949;49.254;8.894;2022-08-06T09:36:13;1.10;;;1.00;;
7807;SDS011;3949;49.254;8.894;2022-08-06T09:41:12;1.13;;;0.70;;
7807;SDS011;3949;49.254;8.894;2022-08-06T09:43:38;1.23;;;0.98;;
7807;SDS011;3949;49.254;8.894;2022-08-06T09:46:05;1.38;;;0.88;;
7807;SDS011;3949;49.254;8.894;2022-08-06T09:48:31;0.90;;;0.88;;
7807;SDS011;3949;49.254;8.894;2022-08-06T09:50:58;1.42;;;1.08;;
7807;SDS011;3949;49.254;8.894;2022-08-06T09:53:24;1.48;;;0.70;;
7807;SDS011;3949;49.254;8.894;2022-08-06T09:55:50;1.33;;;1.08;;
7807;SDS011;3949;49.254;8.894;2022-08-06T09:58:29;1.85;;;1.00;;
7807;SDS011;3949;49.254;8.894;2022-08-06T10:00:56;2.25;;;0.98;;
7807;SDS011;3949;49.254;8.894;2022-08-06T10:03:22;1.17;;;1.13;;
7807;SDS011;3949;49.254;8.894;2022-08-06T10:06:05;1.38;;;0.85;;
7807;SDS011;3949;49.254;8.894;2022-08-06T10:08:31;1.95;;;0.85;;
7807;SDS011;3949;49.254;8.894;2022-08-06T10:10:57;1.50;;;0.95;;
7807;SDS011;3949;49.254;8.894;2022-08-06T10:13:27;3.15;;;1.27;;
7807;SDS011;3949;49.254;8.894;2022-08-06T10:15:54;1.30;;;1.00;;
7807;SDS011;3949;49.254;8.894;2022-08-06T10:18:34;1.15;;;0.70;;
7807;SDS011;3949;49.254;8.894;2022-08-06T10:21:01;3.58;;;1.13;;
7807;SDS011;3949;49.254;8.894;2022-08-06T10:23:27;0.60;;;0.60;;
7807;SDS011;3949;49.254;8.894;2022-08-06T10:25:54;2.47;;;1.00;;
7807;SDS011;3949;49.254;8.894;2022-08-06T10:28:21;0.88;;;0.70;;
7807;SDS011;3949;49.254;8.894;2022-08-06T10:30:49;1.17;;;0.82;;
7807;SDS011;3949;49.254;8.894;2022-08-06T10:33:15;1.33;;;1.23;;
7807;SDS011;3949;49.254;8.894;2022-08-06T10:35:42;0.77;;;0.60;;
7807;SDS011;3949;49.254;8.894;2022-08-06T10:38:08;1.08;;;0.90;;
7807;SDS011;3949;49.254;8.894;2022-08-06T10:40:38;1.48;;;0.80;;
7807;SDS011;3949;49.254;8.894;2022-08-06T10:43:04;0.93;;;0.70;;
7807;SDS011;3949;49.254;8.894;2022-08-06T10:45:31;1.33;;;1.05;;
7807;SDS011;3949;49.254;8.894;2022-08-06T10:47:58;1.15;;;0.82;;
7807;SDS011;3949;49.254;8.894;2022-08-06T10:50:24;3.42;;;2.90;;
7807;SDS011;3949;49.254;8.894;2022-08-06T10:52:51;4.20;;;1.40;;
7807;SDS011;3949;49.254;8.894;2022-08-06T10:55:17;1.20;;;1.00;;
7807;SDS011;3949;49.254;8.894;2022-08-06T10:57:43;1.10;;;0.88;;
7807;SDS011;3949;49.254;8.894;2022-08-06T11:00:10;0.82;;;0.82;;
7807;SDS011;3949;49.254;8.894;2022-08-06T11:05:19;1.00;;;0.90;;
7807;SDS011;3949;49.254;8.894;2022-08-06T11:12:50;1.55;;;1.10;;
7807;SDS011;3949;49.254;8.894;2022-08-06T11:15:18;0.75;;;0.75;;
7807;SDS011;3949;49.254;8.894;2022-08-06T11:17:45;4.07;;;1.30;;
7807;SDS011;3949;49.254;8.894;2022-08-06T11:22:56;1.42;;;0.60;;
7807;SDS011;3949;49.254;8.894;2022-08-06T11:25:41;2.35;;;0.88;;
7807;SDS011;3949;49.254;8.894;2022-08-06T11:28:09;1.13;;;0.70;;
7807;SDS011;3949;49.254;8.894;2022-08-06T11:30:56;2.83;;;0.90;;
7807;SDS011;3949;49.254;8.894;2022-08-06T11:35:47;3.05;;;1.25;;
7807;SDS011;3949;49.254;8.894;2022-08-06T11:38:14;1.33;;;1.05;;
7807;SDS011;3949;49.254;8.894;2022-08-06T11:46:25;1.42;;;0.68;;
7807;SDS011;3949;49.254;8.894;2022-08-06T11:54:10;2.33;;;0.80;;
7807;SDS011;3949;49.254;8.894;2022-08-06T11:59:21;1.00;;;0.85;;
7807;SDS011;3949;49.254;8.894;2022-08-06T12:01:48;0.73;;;0.70;;
7807;SDS011;3949;49.254;8.894;2022-08-06T12:07:14;1.80;;;1.40;;
7807;SDS011;3949;49.254;8.894;2022-08-06T12:09:41;1.90;;;1.55;;
7807;SDS011;3949;49.254;8.894;2022-08-06T12:14:56;2.58;;;1.48;;
7807;SDS011;3949;49.254;8.894;2022-08-06T12:17:23;2.97;;;1.02;;
7807;SDS011;3949;49.254;8.894;2022-08-06T12:19:49;3.00;;;2.03;;
7807;SDS011;3949;49.254;8.894;2022-08-06T12:22:17;1.20;;;0.80;;
7807;SDS011;3949;49.254;8.894;2022-08-06T12:24:44;1.17;;;1.00;;
7807;SDS011;3949;49.254;8.894;2022-08-06T12:27:11;1.58;;;0.90;;
7807;SDS011;3949;49.254;8.894;2022-08-06T12:29:37;1.10;;;0.98;;
7807;SDS011;3949;49.254;8.894;2022-08-06T12:34:46;1.20;;;1.10;;
7807;SDS011;3949;49.254;8.894;2022-08-06T12:37:12;1.85;;;1.48;;
7807;SDS011;3949;49.254;8.894;2022-08-06T12:39:39;1.00;;;0.90;;
7807;SDS011;3949;49.254;8.894;2022-08-06T12:42:24;0.70;;;0.70;;
7807;SDS011;3949;49.254;8.894;2022-08-06T12:44:50;2.38;;;1.05;;
7807;SDS011;3949;49.254;8.894;2022-08-06T12:47:16;0.90;;;0.82;;
7807;SDS011;3949;49.254;8.894;2022-08-06T12:49:42;2.92;;;1.00;;
7807;SDS011;3949;49.254;8.894;2022-08-06T12:52:12;1.35;;;1.13;;
7807;SDS011;3949;49.254;8.894;2022-08-06T12:54:38;1.90;;;1.25;;
7807;SDS011;3949;49.254;8.894;2022-08-06T12:57:04;2.20;;;0.93;;
7807;SDS011;3949;49.254;8.894;2022-08-06T12:59:30;2.22;;;1.52;;
7807;SDS011;3949;49.254;8.894;2022-08-06T13:01:57;1.00;;;0.90;;
7807;SDS011;3949;49.254;8.894;2022-08-06T13:04:23;1.27;;;0.90;;
7807;SDS011;3949;49.254;8.894;2022-08-06T13:06:50;1.65;;;1.10;;
7807;SDS011;3949;49.254;8.894;2022-08-06T13:09:16;2.00;;;0.70;;
7807;SDS011;3949;49.254;8.894;2022-08-06T13:11:44;1.48;;;0.80;;
7807;SDS011;3949;49.254;8.894;2022-08-06T13:14:12;1.08;;;0.80;;
7807;SDS011;3949;49.254;8.894;2022-08-06T13:16:40;1.25;;;0.70;;
7807;SDS011;3949;49.254;8.894;2022-08-06T13:19:08;1.10;;;0.77;;
7807;SDS011;3949;49.254;8.894;2022-08-06T13:21:35;1.50;;;0.93;;
7807;SDS011;3949;49.254;8.894;2022-08-06T13:24:01;0.70;;;0.60;;
7807;SDS011;3949;49.254;8.894;2022-08-06T13:26:28;2.05;;;0.60;;
7807;SDS011;3949;49.254;8.894;2022-08-06T13:29:05;0.88;;;0.88;;
7807;SDS011;3949;49.254;8.894;2022-08-06T13:31:32;0.90;;;0.82;;
7807;SDS011;3949;49.254;8.894;2022-08-06T13:33:58;1.00;;;0.80;;
7807;SDS011;3949;49.254;8.894;2022-08-06T13:36:26;1.15;;;0.88;;
7807;SDS011;3949;49.254;8.894;2022-08-06T13:38:52;1.30;;;0.88;;
7807;SDS011;3949;49.254;8.894;2022-08-06T13:41:25;1.50;;;0.85;;
7807;SDS011;3949;49.254;8.894;2022-08-06T13:43:52;0.98;;;0.68;;
7807;SDS011;3949;49.254;8.894;2022-08-06T13:46:19;1.75;;;0.90;;
7807;SDS011;3949;49.254;8.894;2022-08-06T13:48:46;0.88;;;0.77;;
7807;SDS011;3949;49.254;8.894;2022-08-06T13:51:13;0.90;;;0.60;;
7807;SDS011;3949;49.254;8.894;2022-08-06T13:53:39;1.98;;;0.82;;
7807;SDS011;3949;49.254;8.894;2022-08-06T13:56:05;0.82;;;0.82;;
7807;SDS011;3949;49.254;8.894;2022-08-06T13:58:31;2.78;;;1.05;;
7807;SDS011;3949;49.254;8.894;2022-08-06T14:00:57;2.88;;;0.98;;
7807;SDS011;3949;49.254;8.894;2022-08-06T14:03:24;3.03;;;1.17;;
7807;SDS011;3949;49.254;8.894;2022-08-06T14:05:50;1.80;;;0.90;;
7807;SDS011;3949;49.254;8.894;2022-08-06T14:08:16;0.85;;;0.80;;
7807;SDS011;3949;49.254;8.894;2022-08-06T14:10:42;1.83;;;0.98;;
7807;SDS011;3949;49.254;8.894;2022-08-06T14:13:08;1.13;;;1.00;;
7807;SDS011;3949;49.254;8.894;2022-08-06T14:15:40;0.50;;;0.50;;
7807;SDS011;3949;49.254;8.894;2022-08-06T14:18:07;0.75;;;0.75;;
7807;SDS011;3949;49.254;8.894;2022-08-06T14:20:33;1.25;;;0.63;;
7807;SDS011;3949;49.254;8.894;2022-08-06T14:22:59;0.73;;;0.70;;
7807;SDS011;3949;49.254;8.894;2022-08-06T14:25:25;0.80;;;0.57;;
7807;SDS011;3949;49.254;8.894;2022-08-06T14:27:52;1.30;;;0.93;;
7807;SDS011;3949;49.254;8.894;2022-08-06T14:30:18;0.60;;;0.60;;
7807;SDS011;3949;49.254;8.894;2022-08-06T14:32:45;0.98;;;0.60;;
7807;SDS011;3949;49.254;8.894;2022-08-06T14:35:11;1.75;;;0.70;;
7807;SDS011;3949;49.254;8.894;2022-08-06T14:37:38;0.63;;;0.63;;
7807;SDS011;3949;49.254;8.894;2022-08-06T14:40:04;0.65;;;0.65;;
7807;SDS011;3949;49.254;8.894;2022-08-06T14:42:30;5.10;;;3.50;;
7807;SDS011;3949;49.254;8.894;2022-08-06T14:45:15;1.42;;;0.73;;
7807;SDS011;3949;49.254;8.894;2022-08-06T14:47:41;1.83;;;1.40;;
7807;SDS011;3949;49.254;8.894;2022-08-06T14:50:07;0.70;;;0.70;;
7807;SDS011;3949;49.254;8.894;2022-08-06T14:52:33;1.00;;;0.90;;
7807;SDS011;3949;49.254;8.894;2022-08-06T14:54:59;1.50;;;0.70;;
7807;SDS011;3949;49.254;8.894;2022-08-06T14:57:26;0.90;;;0.90;;
7807;SDS011;3949;49.254;8.894;2022-08-06T14:59:52;0.73;;;0.70;;
7807;SDS011;3949;49.254;8.894;2022-08-06T15:02:19;0.93;;;0.90;;
7807;SDS011;3949;49.254;8.894;2022-08-06T15:04:45;0.90;;;0.85;;
7807;SDS011;3949;49.254;8.894;2022-08-06T15:07:11;0.60;;;0.57;;
7807;SDS011;3949;49.254;8.894;2022-08-06T15:09:37;0.88;;;0.73;;
7807;SDS011;3949;49.254;8.894;2022-08-06T15:12:04;1.52;;;0.63;;
7807;SDS011;3949;49.254;8.894;2022-08-06T15:14:30;2.45;;;0.70;;
7807;SDS011;3949;49.254;8.894;2022-08-06T15:16:56;1.80;;;1.60;;
7807;SDS011;3949;49.254;8.894;2022-08-06T15:19:22;0.88;;;0.88;;
7807;SDS011;3949;49.254;8.894;2022-08-06T15:21:48;1.25;;;1.15;;
7807;SDS011;3949;49.254;8.894;2022-08-06T15:24:15;2.70;;;1.48;;
7807;SDS011;3949;49.254;8.894;2022-08-06T15:26:41;1.02;;;1.02;;
7807;SDS011;3949;49.254;8.894;2022-08-06T15:29:07;0.80;;;0.60;;
7807;SDS011;3949;49.254;8.894;2022-08-06T15:31:34;2.88;;;1.25;;
7807;SDS011;3949;49.254;8.894;2022-08-06T15:34:00;4.93;;;1.20;;
7807;SDS011;3949;49.254;8.894;2022-08-06T15:36:26;1.02;;;0.93;;
7807;SDS011;3949;49.254;8.894;2022-08-06T15:38:52;0.90;;;0.73;;
7807;SDS011;3949;49.254;8.894;2022-08-06T15:41:19;0.80;;;0.70;;
7807;SDS011;3949;49.254;8.894;2022-08-06T15:43:47;0.70;;;0.70;;
7807;SDS011;3949;49.254;8.894;2022-08-06T15:46:14;0.88;;;0.65;;
7807;SDS011;3949;49.254;8.894;2022-08-06T15:48:40;0.65;;;0.57;;
7807;SDS011;3949;49.254;8.894;2022-08-06T15:51:06;1.45;;;0.73;;
7807;SDS011;3949;49.254;8.894;2022-08-06T15:53:32;0.68;;;0.60;;
7807;SDS011;3949;49.254;8.894;2022-08-06T15:55:58;0.70;;;0.70;;
7807;SDS011;3949;49.254;8.894;2022-08-06T15:58:24;2.50;;;1.88;;
7807;SDS011;3949;49.254;8.894;2022-08-06T16:00:50;1.80;;;1.05;;
7807;SDS011;3949;49.254;8.894;2022-08-06T16:03:17;1.42;;;0.80;;
7807;SDS011;3949;49.254;8.894;2022-08-06T16:05:43;0.93;;;0.77;;
7807;SDS011;3949;49.254;8.894;2022-08-06T16:08:09;1.77;;;0.77;;
7807;SDS011;3949;49.254;8.894;2022-08-06T16:10:40;1.33;;;0.88;;
7807;SDS011;3949;49.254;8.894;2022-08-06T16:13:06;0.70;;;0.60;;
7807;SDS011;3949;49.254;8.894;2022-08-06T16:15:34;0.57;;;0.57;;
7807;SDS011;3949;49.254;8.894;2022-08-06T16:18:00;1.00;;;0.90;;
7807;SDS011;3949;49.254;8.894;2022-08-06T16:20:26;0.98;;;0.60;;
7807;SDS011;3949;49.254;8.894;2022-08-06T16:22:52;1.15;;;0.70;;
7807;SDS011;3949;49.254;8.894;2022-08-06T16:25:19;1.38;;;0.95;;